Terminal Aerodrome Forecast
Issued by NWS

Home | Current Version | Previous Version | Text Only | Print | Product List | Glossary On
Versions: 1 2 3 4 5 6 7 8 9 10 11 12 13 14 15 16 17
000
FTUS46 KMTR 211210 RRA
TAFOAK
TAF
KOAK 211210Z 2112/2218 26012KT P6SM VCSH BKN030 OVC050
      TEMPO 2112/2116 5SM SHRA BKN030 OVC040
     FM211600 23011KT P6SM -SHRA BKN030 OVC040
     FM220000 18012KT 6SM -RA BR BKN035 OVC040
     FM220600 13020G30KT 4SM RA OVC030 WS020/15040KT
     FM220900 15035G45KT 3SM +RA OVC025 WS020/17060KT
     FM221500 21017G27KT 5SM +SHRA BKN020 OVC030=

USA.gov is the U.S. government's official web portal to all federal, state and local government web resources and services.